Terminal Aerodrome Forecast
Issued by NWS

Home | Current Version | Previous Version | Text Only | Print | Product List | Glossary On
Versions: 1 2 3 4 5 6 7 8 9 10 11 12 13 14 15 16 17 18
000
FTUS41 KCAR 161213 AAA
TAFFVE
TAF AMD
KFVE 161213Z 1612/1712 32009KT P6SM SCT015 BKN040
     FM161300 31010G18KT P6SM SCT040
     FM170100 30006KT P6SM SCT250
     FM170600 28009KT P6SM BKN045=

USA.gov is the U.S. government's official web portal to all federal, state and local government web resources and services.